Time;durP1;ratioP1;P1;durP2;ratioP2;P2;SDS_P1;SDS_P2;PMS_P1;PMS_P2;Temp;Humidity;BMP_temperature;BMP_pressure;BME280_temperature;BME280_humidity;BME280_pressure;Samples;Min_cycle;Max_cycle;Signal;HPM_P1;HPM_P2
2021/12/08 00:00:55;;;;;;;;;1.50;1.25;;;;;6.51;70.93;99293.59;4979558;28;45386;-72
2021/12/08 00:03:23;;;;;;;;;0.00;0.00;;;;;6.47;70.11;99303.16;4962058;28;46440;-72
2021/12/08 00:05:50;;;;;;;;;0.00;0.00;;;;;6.49;70.67;99303.16;4979505;28;45275;-73
2021/12/08 00:08:19;;;;;;;;;2.00;0.00;;;;;6.42;71.04;99296.06;4987010;28;45256;-72
2021/12/08 00:13:24;;;;;;;;;1.50;0.00;;;;;6.46;70.82;99304.00;4963844;28;45441;-72
2021/12/08 00:15:52;;;;;;;;;0.50;0.50;;;;;6.46;71.77;99287.38;4959660;28;45235;-72
2021/12/08 00:18:24;;;;;;;;;0.00;0.00;;;;;6.39;70.47;99286.41;4964752;28;45296;-72
2021/12/08 00:20:53;;;;;;;;;2.00;0.00;;;;;6.39;71.26;99310.03;4965063;28;47013;-72
2021/12/08 00:23:20;;;;;;;;;0.00;0.00;;;;;6.41;71.09;99305.69;4969329;28;47890;-72
2021/12/08 00:25:46;;;;;;;;;1.00;0.00;;;;;6.35;70.89;99296.81;4959384;28;45359;-72
2021/12/08 00:28:12;;;;;;;;;0.00;0.00;;;;;6.37;71.31;99308.22;4969163;28;45376;-72
2021/12/08 00:30:41;;;;;;;;;2.00;1.00;;;;;6.26;71.43;99290.56;4979023;28;45545;-72
2021/12/08 00:33:08;;;;;;;;;1.00;0.00;;;;;6.35;71.06;99292.44;4966551;28;46207;-72
2021/12/08 00:35:34;;;;;;;;;2.00;0.25;;;;;6.23;71.73;99281.75;4971304;28;45244;-72
2021/12/08 00:38:00;;;;;;;;;1.50;0.00;;;;;6.22;71.57;99283.50;4967683;28;45329;-72
2021/12/08 00:40:28;;;;;;;;;0.00;0.00;;;;;6.28;71.28;99303.72;4971099;28;47300;-72
2021/12/08 00:42:55;;;;;;;;;1.00;0.00;;;;;6.27;72.03;99310.69;4967900;28;46823;-72
2021/12/08 00:45:23;;;;;;;;;0.25;0.25;;;;;6.27;71.11;99317.66;4959114;28;45386;-72
2021/12/08 00:47:50;;;;;;;;;0.00;0.00;;;;;6.32;71.96;99328.25;4969288;28;44713;-72
2021/12/08 00:50:18;;;;;;;;;0.00;0.00;;;;;6.25;71.46;99317.66;4959111;28;45266;-72
2021/12/08 00:52:44;;;;;;;;;0.00;0.00;;;;;6.27;71.46;99322.91;4961335;28;46523;-72
2021/12/08 00:55:14;;;;;;;;;1.00;1.00;;;;;6.24;71.34;99328.09;4958995;28;45352;-72
2021/12/08 00:57:39;;;;;;;;;2.00;0.00;;;;;6.31;72.20;99344.88;4964464;28;45444;-72
2021/12/08 01:00:09;;;;;;;;;2.50;0.25;;;;;6.32;71.04;99341.38;4973826;28;46529;-72
2021/12/08 01:02:39;;;;;;;;;0.25;0.25;;;;;6.27;71.15;99328.16;4961301;28;46841;-72
2021/12/08 01:05:06;;;;;;;;;0.00;0.00;;;;;6.32;71.91;99330.88;4958825;28;45395;-72
2021/12/08 01:07:32;;;;;;;;;0.00;0.00;;;;;6.35;70.41;99329.19;4962999;28;45328;-72
2021/12/08 01:09:57;;;;;;;;;0.50;0.00;;;;;6.33;71.07;99330.00;4974698;27;45497;-72
2021/12/08 01:12:23;;;;;;;;;0.00;0.00;;;;;6.28;71.46;99319.47;4962553;28;48083;-72
2021/12/08 01:14:48;;;;;;;;;0.00;0.00;;;;;6.20;71.07;99321.06;4965042;28;45404;-72
2021/12/08 01:17:14;;;;;;;;;0.50;0.00;;;;;6.16;71.32;99308.72;4962217;28;45357;-72
2021/12/08 01:19:40;;;;;;;;;0.00;0.00;;;;;6.13;71.62;99314.78;4966241;28;45541;-72
2021/12/08 01:22:05;;;;;;;;;2.75;0.00;;;;;6.11;70.99;99321.78;4961264;28;45400;-72
2021/12/08 01:24:31;;;;;;;;;1.00;0.00;;;;;6.00;71.13;99308.47;4967280;28;45166;-72
2021/12/08 01:26:57;;;;;;;;;1.75;1.00;;;;;6.04;71.60;99304.16;4961366;28;45485;-72
2021/12/08 01:29:22;;;;;;;;;2.00;0.00;;;;;5.95;71.81;99278.63;4963910;28;47111;-72
2021/12/08 01:31:48;;;;;;;;;0.75;0.00;;;;;6.01;71.13;99283.09;4961234;28;45492;-72
2021/12/08 01:34:14;;;;;;;;;0.00;0.00;;;;;5.88;71.10;99266.25;4976903;28;45197;-72
2021/12/08 01:36:41;;;;;;;;;1.00;0.00;;;;;5.80;70.54;99245.13;4974388;28;45534;-72
2021/12/08 01:39:07;;;;;;;;;0.50;0.00;;;;;5.88;70.54;99278.44;4958435;28;45534;-72
2021/12/08 01:41:34;;;;;;;;;1.25;0.00;;;;;5.83;70.75;99286.25;4960845;28;46255;-72
2021/12/08 01:46:43;;;;;;;;;2.00;0.00;;;;;5.75;71.30;99314.94;4993929;28;45288;-72
2021/12/08 01:49:09;;;;;;;;;2.00;0.50;;;;;5.77;71.44;99331.59;4966098;28;46264;-72
2021/12/08 01:51:34;;;;;;;;;2.00;1.00;;;;;5.72;71.42;99322.75;4975422;28;45512;-72
2021/12/08 01:54:02;;;;;;;;;1.75;1.00;;;;;5.60;71.02;99327.72;4958131;28;45909;-72
2021/12/08 01:56:29;;;;;;;;;1.00;1.00;;;;;5.70;71.29;99344.53;4959491;28;45624;-72
2021/12/08 01:58:55;;;;;;;;;0.00;0.00;;;;;5.65;71.49;99344.44;4958818;28;45436;-72
2021/12/08 02:01:25;;;;;;;;;1.00;0.00;;;;;5.70;71.28;99361.16;4962810;28;45335;-72
2021/12/08 02:03:51;;;;;;;;;1.00;0.00;;;;;5.60;70.88;99346.97;4962616;28;45381;-72
2021/12/08 02:06:18;;;;;;;;;0.00;0.00;;;;;5.63;71.77;99355.75;4958727;28;45375;-71
2021/12/08 02:08:44;;;;;;;;;1.00;0.00;;;;;5.57;71.14;99349.53;4984053;28;45282;-72
2021/12/08 02:11:10;;;;;;;;;2.75;1.00;;;;;5.55;70.98;99345.13;4962757;28;47234;-72
2021/12/08 02:13:39;;;;;;;;;0.00;0.00;;;;;5.57;71.56;99348.63;4968834;28;45476;-72
2021/12/08 02:16:08;;;;;;;;;0.00;0.00;;;;;5.56;71.27;99365.22;4957968;28;45257;-72
2021/12/08 02:18:36;;;;;;;;;1.00;1.00;;;;;5.43;71.26;99340.47;4963153;28;45565;-72
2021/12/08 02:21:29;;;;;;;;;2.00;0.00;;;;;5.44;71.18;99368.47;4958190;28;46372;-72
2021/12/08 02:23:58;;;;;;;;;0.00;0.00;;;;;5.52;71.76;99366.03;4962710;28;45308;-71
2021/12/08 02:26:25;;;;;;;;;3.00;1.50;;;;;5.54;71.55;99374.78;4958986;28;45371;-71
2021/12/08 02:28:52;;;;;;;;;2.25;1.00;;;;;5.46;71.86;99372.03;4967685;28;45373;-72
2021/12/08 02:31:27;;;;;;;;;0.00;0.00;;;;;5.48;72.33;99390.38;4957821;28;45515;-72
2021/12/08 02:48:14;;;;;;;;;2.00;0.00;;;;;5.47;72.32;99388.63;4998755;28;45428;-72
2021/12/08 02:50:30;;;;;;;;;5.00;0.00;;;;;5.50;72.15;99386.06;4975894;27;45864;-72
2021/12/08 02:52:57;;;;;;;;;0.00;0.00;;;;;5.49;71.99;99400.00;4962602;28;46678;-71
2021/12/08 02:55:26;;;;;;;;;0.75;0.75;;;;;5.46;71.99;99385.13;4957693;28;45317;-72
2021/12/08 02:57:52;;;;;;;;;1.75;0.00;;;;;5.45;72.19;99378.09;4960144;28;44789;-71
2021/12/08 03:00:23;;;;;;;;;2.00;0.00;;;;;5.44;72.02;99380.69;4957581;28;45323;-72
2021/12/08 03:02:50;;;;;;;;;0.75;0.00;;;;;5.39;72.14;99364.84;4960712;28;47402;-72
2021/12/08 03:05:16;;;;;;;;;0.00;0.00;;;;;5.32;71.76;99350.75;4956524;28;45311;-71
2021/12/08 03:07:41;;;;;;;;;0.50;0.00;;;;;5.30;71.90;99355.06;4969468;28;45455;-72
2021/12/08 03:10:12;;;;;;;;;1.00;0.00;;;;;5.39;71.11;99373.59;4964006;27;45296;-72
2021/12/08 03:12:39;;;;;;;;;0.25;0.00;;;;;5.42;71.49;99371.91;4959334;28;47335;-72
2021/12/08 03:15:06;;;;;;;;;2.50;0.00;;;;;5.31;71.23;99348.97;4965068;28;45387;-72
2021/12/08 03:17:34;;;;;;;;;0.00;0.00;;;;;5.36;71.45;99356.94;4963573;28;45391;-72
2021/12/08 03:19:59;;;;;;;;;1.00;0.00;;;;;5.28;71.61;99343.66;4957476;28;45484;-71
2021/12/08 03:22:25;;;;;;;;;0.00;0.00;;;;;5.26;71.72;99340.13;4961715;28;45458;-71
2021/12/08 03:24:52;;;;;;;;;0.00;0.00;;;;;5.09;71.25;99324.03;4965788;28;45422;-72
2021/12/08 03:27:22;;;;;;;;;1.00;0.00;;;;;5.28;71.48;99356.75;4963485;28;45393;-72
2021/12/08 03:32:24;;;;;;;;;0.00;0.00;;;;;5.26;71.88;99355.84;4958956;28;45387;-71
2021/12/08 03:34:51;;;;;;;;;0.00;0.00;;;;;5.20;71.97;99323.38;4957356;28;45326;-71
2021/12/08 03:37:29;;;;;;;;;0.00;0.00;;;;;5.19;71.50;99330.38;4961749;28;45364;-71
2021/12/08 03:39:56;;;;;;;;;1.25;0.00;;;;;5.16;71.63;99325.06;4957191;28;45438;-72
2021/12/08 03:42:25;;;;;;;;;0.00;0.00;;;;;5.19;71.18;99330.38;4965576;28;48278;-71
2021/12/08 03:44:53;;;;;;;;;2.50;0.00;;;;;5.18;71.80;99336.44;4956903;28;45242;-72
2021/12/08 03:47:25;;;;;;;;;1.00;0.00;;;;;5.14;71.88;99330.25;4996646;28;45283;-71
2021/12/08 03:49:51;;;;;;;;;1.25;0.50;;;;;5.07;71.95;99328.38;4957092;28;45165;-71
2021/12/08 03:52:16;;;;;;;;;0.00;0.00;;;;;5.11;71.77;99339.78;4958895;28;45364;-71
2021/12/08 03:54:42;;;;;;;;;0.00;0.00;;;;;5.12;72.13;99346.78;4957014;28;45312;-71
2021/12/08 03:57:08;;;;;;;;;0.00;0.00;;;;;5.14;72.26;99350.34;4958810;28;45369;-71
2021/12/08 03:59:33;;;;;;;;;0.00;0.00;;;;;4.98;71.92;99322.03;4965450;28;45847;-71
2021/12/08 04:01:59;;;;;;;;;0.00;0.00;;;;;5.08;72.12;99348.47;4958828;28;45307;-71
2021/12/08 04:04:27;;;;;;;;;0.00;0.00;;;;;5.03;72.28;99354.44;4957487;28;45449;-71
2021/12/08 04:06:56;;;;;;;;;0.00;0.00;;;;;4.98;71.87;99336.00;4958609;28;45289;-71
2021/12/08 04:09:31;;;;;;;;;1.00;0.50;;;;;5.05;72.24;99353.63;4981717;28;45402;-71
2021/12/08 04:11:57;;;;;;;;;3.00;0.00;;;;;5.05;72.04;99350.13;4966133;28;48496;-71
2021/12/08 04:14:27;;;;;;;;;0.00;0.00;;;;;5.00;72.26;99350.00;4965496;28;45862;-71
2021/12/08 04:17:01;;;;;;;;;2.00;1.00;;;;;4.98;72.44;99342.97;4957694;28;45375;-71
2021/12/08 04:19:27;;;;;;;;;2.25;1.00;;;;;4.99;72.19;99336.91;4961886;28;46244;-71
2021/12/08 04:21:59;;;;;;;;;0.00;0.00;;;;;4.76;71.63;99305.84;4959626;28;46362;-71
2021/12/08 04:24:25;;;;;;;;;2.00;0.00;;;;;5.02;72.31;99340.47;4960020;28;45358;-71
2021/12/08 04:26:55;;;;;;;;;0.25;0.25;;;;;4.99;72.19;99348.25;4959523;28;45372;-71
2021/12/08 04:29:29;;;;;;;;;0.75;0.75;;;;;4.90;72.57;99327.06;4960047;28;45391;-71
2021/12/08 04:31:56;;;;;;;;;0.00;0.00;;;;;4.99;72.19;99358.72;4967756;28;45721;-71
2021/12/08 04:34:27;;;;;;;;;0.00;0.00;;;;;4.89;72.34;99336.66;4962856;28;45167;-72
2021/12/08 04:36:58;;;;;;;;;1.00;0.00;;;;;4.97;72.49;99351.69;4973350;28;45462;-72
2021/12/08 04:39:34;;;;;;;;;0.00;0.00;;;;;4.96;72.42;99356.03;4973610;28;46529;-72
2021/12/08 04:42:06;;;;;;;;;2.50;0.00;;;;;4.93;72.24;99358.59;4960737;28;46522;-72
2021/12/08 04:44:35;;;;;;;;;0.00;0.00;;;;;4.93;72.46;99351.63;4961653;28;45233;-71
2021/12/08 04:47:21;;;;;;;;;0.25;0.25;;;;;4.96;72.73;99363.91;4997023;28;45423;-71
2021/12/08 05:07:02;;;;;;;;;0.50;0.00;;;;;4.87;72.29;99376.75;4962448;28;45450;-71
2021/12/08 05:08:55;;;;;;;;;3.50;2.00;;;;;4.72;72.76;99349.34;4963081;28;45260;-72
2021/12/08 05:11:23;;;;;;;;;0.25;0.25;;;;;4.83;72.75;99374.91;5048337;28;47342;-72
2021/12/08 05:13:54;;;;;;;;;2.00;0.00;;;;;4.69;72.39;99367.59;4968063;28;47552;-71
2021/12/08 05:16:21;;;;;;;;;0.00;0.00;;;;;4.79;72.94;99384.44;4962211;28;45269;-71
2021/12/08 05:18:49;;;;;;;;;1.50;0.25;;;;;4.68;72.27;99370.19;4958424;28;45613;-71
2021/12/08 05:21:31;;;;;;;;;2.75;1.00;;;;;4.68;72.84;99372.81;4964309;28;46018;-70
2021/12/08 05:24:06;;;;;;;;;1.75;1.00;;;;;4.75;72.42;99389.56;4961518;28;45569;-71
2021/12/08 05:26:37;;;;;;;;;1.25;0.00;;;;;4.75;72.68;99398.28;4962850;28;45296;-71
2021/12/08 05:29:16;;;;;;;;;0.00;0.00;;;;;4.71;72.63;99399.06;4958042;28;45464;-72
2021/12/08 05:31:43;;;;;;;;;1.50;0.00;;;;;4.71;72.46;99392.09;4960465;28;45412;-72
2021/12/08 05:34:10;;;;;;;;;0.25;0.25;;;;;4.63;72.78;99382.28;4958349;28;46794;-72
2021/12/08 05:36:37;;;;;;;;;4.50;3.00;;;;;4.70;72.61;99394.66;4969565;28;45344;-72
2021/12/08 05:39:08;;;;;;;;;12.00;10.00;;;;;4.67;72.88;99397.19;4970542;28;45294;-72
2021/12/08 05:41:37;;;;;;;;;1.25;0.00;;;;;4.62;72.46;99393.56;4958007;28;45373;-72
2021/12/08 05:44:03;;;;;;;;;0.75;0.75;;;;;4.72;72.91;99406.94;4969556;28;47188;-71
2021/12/08 05:46:31;;;;;;;;;6.00;1.00;;;;;4.61;72.71;99378.72;4975756;28;45323;-71
2021/12/08 05:48:57;;;;;;;;;5.75;3.50;;;;;4.72;73.12;99411.28;4958224;28;45392;-71
2021/12/08 05:51:26;;;;;;;;;2.00;1.00;;;;;4.59;72.71;99396.13;4958134;28;45487;-72
2021/12/08 05:53:58;;;;;;;;;1.50;0.00;;;;;4.64;72.73;99413.72;4957868;28;45581;-71
2021/12/08 05:56:24;;;;;;;;;1.25;0.00;;;;;4.61;73.06;99412.75;4957853;28;45453;-71
2021/12/08 05:58:52;;;;;;;;;2.25;1.00;;;;;4.59;72.85;99409.19;4957909;28;45378;-70
2021/12/08 06:01:31;;;;;;;;;6.75;2.00;;;;;4.47;72.93;99386.22;4957532;28;45319;-71
2021/12/08 06:03:58;;;;;;;;;3.00;1.00;;;;;4.49;73.15;99393.28;4958023;28;45337;-71
2021/12/08 06:06:25;;;;;;;;;1.50;0.25;;;;;4.43;73.36;99394.88;4961411;28;45387;-71
2021/12/08 06:08:53;;;;;;;;;0.50;0.50;;;;;4.43;73.60;99393.13;4968164;28;45453;-71
2021/12/08 06:11:18;;;;;;;;;2.75;1.00;;;;;4.46;73.32;99401.06;4958462;28;45434;-71
2021/12/08 06:13:46;;;;;;;;;0.00;0.00;;;;;4.39;73.33;99382.53;4957856;28;45320;-72
2021/12/08 06:16:13;;;;;;;;;0.00;0.00;;;;;4.51;73.25;99398.56;4967078;28;45352;-72
2021/12/08 06:18:40;;;;;;;;;1.75;1.00;;;;;4.44;72.91;99391.38;4977926;28;45259;-72
2021/12/08 06:21:17;;;;;;;;;2.00;1.00;;;;;4.46;73.38;99393.19;4958866;28;45335;-72
2021/12/08 06:23:43;;;;;;;;;1.25;0.00;;;;;4.19;73.26;99346.28;4956640;28;47292;-72
2021/12/08 06:26:10;;;;;;;;;1.00;1.00;;;;;4.46;73.46;99395.81;4965495;28;45276;-72
2021/12/08 06:28:36;;;;;;;;;1.00;0.25;;;;;4.45;73.34;99401.91;4955967;28;45348;-72
2021/12/08 06:31:03;;;;;;;;;1.00;1.00;;;;;4.49;73.26;99416.81;4959691;28;45652;-72
2021/12/08 06:33:30;;;;;;;;;1.75;0.00;;;;;4.42;73.11;99407.03;4957901;28;47137;-73
2021/12/08 06:36:01;;;;;;;;;0.75;0.75;;;;;4.40;73.24;99411.34;4959464;28;45656;-72
2021/12/08 06:38:26;;;;;;;;;3.00;0.25;;;;;4.44;73.19;99412.31;4965242;28;45279;-72
2021/12/08 06:41:11;;;;;;;;;0.00;0.00;;;;;4.42;72.87;99421.84;4962666;28;47399;-72
2021/12/08 06:43:41;;;;;;;;;2.00;2.00;;;;;4.51;73.18;99434.28;4978662;28;47232;-71
2021/12/08 06:46:07;;;;;;;;;5.00;0.00;;;;;4.49;73.15;99427.28;4991486;28;45488;-71
2021/12/08 06:48:37;;;;;;;;;7.25;1.00;;;;;4.40;72.94;99418.31;4975915;28;45335;-72
2021/12/08 06:51:20;;;;;;;;;0.00;0.00;;;;;4.34;73.31;99408.59;4958144;28;46104;-71
2021/12/08 06:53:50;;;;;;;;;2.50;1.00;;;;;4.40;73.56;99416.59;4960701;28;45689;-71
2021/12/08 06:56:26;;;;;;;;;5.00;1.00;;;;;4.43;73.08;99431.50;5045425;28;45846;-71
2021/12/08 06:58:57;;;;;;;;;1.25;0.00;;;;;4.38;73.21;99410.44;4957343;28;45343;-72
2021/12/08 07:02:33;;;;;;;;;0.25;0.25;;;;;4.36;73.37;99414.72;4973951;28;46187;-72
2021/12/08 07:04:35;;;;;;;;;3.00;1.00;;;;;4.42;73.23;99422.72;4973056;28;46167;-72
2021/12/08 07:07:11;;;;;;;;;2.00;1.00;;;;;4.39;73.54;99417.41;4971644;28;45347;-71
2021/12/08 07:09:44;;;;;;;;;1.50;0.25;;;;;4.37;74.31;99426.97;4978995;28;45186;-70
2021/12/08 07:12:15;;;;;;;;;0.00;0.00;;;;;4.33;74.11;99422.50;4957465;28;45315;-72
2021/12/08 07:14:45;;;;;;;;;4.50;1.00;;;;;4.30;74.08;99427.66;4960975;28;46541;-71
2021/12/08 07:17:14;;;;;;;;;1.00;1.00;;;;;4.30;74.16;99422.41;4957373;28;45296;-72
2021/12/08 07:19:51;;;;;;;;;4.50;2.00;;;;;4.28;74.02;99428.44;4959478;28;45248;-72
2021/12/08 07:22:22;;;;;;;;;5.00;1.00;;;;;4.33;73.75;99438.19;4964913;28;45347;-71
2021/12/08 07:24:52;;;;;;;;;2.00;1.00;;;;;4.31;73.59;99434.63;4959200;28;45684;-72
2021/12/08 07:27:22;;;;;;;;;1.00;0.00;;;;;4.22;73.60;99416.09;4958191;28;45395;-71
2021/12/08 07:29:49;;;;;;;;;2.00;0.50;;;;;4.32;73.63;99438.16;4957463;28;45394;-71
2021/12/08 07:32:33;;;;;;;;;5.75;2.00;;;;;4.26;74.03;99436.25;4967562;28;45407;-71
2021/12/08 07:35:04;;;;;;;;;0.50;0.00;;;;;4.28;73.91;99438.91;4970937;28;45545;-71
2021/12/08 07:37:32;;;;;;;;;0.25;0.25;;;;;4.24;74.39;99445.78;4971288;28;45339;-71
2021/12/08 07:40:20;;;;;;;;;4.25;1.50;;;;;4.14;74.39;99430.69;4960319;28;45324;-71
2021/12/08 07:43:01;;;;;;;;;1.00;0.75;;;;;4.26;73.96;99475.50;4959910;28;46972;-70
2021/12/08 07:45:32;;;;;;;;;0.50;0.00;;;;;4.22;74.25;99468.38;4962295;28;47376;-70
2021/12/08 07:48:00;;;;;;;;;6.75;2.75;;;;;4.24;73.79;99474.56;4986451;28;45354;-71
2021/12/08 07:50:30;;;;;;;;;1.00;1.00;;;;;4.30;74.33;99495.66;4965882;28;45310;-71
2021/12/08 07:52:59;;;;;;;;;1.00;1.00;;;;;4.31;74.34;99491.28;4976101;28;45289;-71
2021/12/08 07:55:38;;;;;;;;;2.75;1.00;;;;;4.20;74.55;99481.44;4970342;28;46449;-71
2021/12/08 07:58:06;;;;;;;;;3.25;1.00;;;;;4.15;74.74;99476.94;4959755;28;45963;-71
2021/12/08 08:00:38;;;;;;;;;1.00;0.00;;;;;4.20;74.41;99477.91;4961742;28;45343;-72
2021/12/08 08:03:05;;;;;;;;;1.00;1.00;;;;;4.16;73.91;99474.34;4958428;28;45293;-72
2021/12/08 08:05:32;;;;;;;;;2.25;1.25;;;;;4.24;74.60;99488.50;4964312;28;45298;-72
2021/12/08 08:08:02;;;;;;;;;3.00;1.00;;;;;4.19;74.45;99474.41;4987513;28;45752;-72
2021/12/08 08:10:30;;;;;;;;;1.75;1.50;;;;;4.23;74.11;99483.25;4964708;28;45313;-72
2021/12/08 08:13:01;;;;;;;;;5.25;1.00;;;;;4.26;74.19;99486.84;4965536;28;45446;-72
2021/12/08 08:15:30;;;;;;;;;0.25;0.25;;;;;4.20;74.21;99480.53;4968058;28;47153;-72
2021/12/08 08:17:57;;;;;;;;;0.50;0.25;;;;;4.27;74.00;99490.34;4958834;28;45368;-71
2021/12/08 08:20:31;;;;;;;;;2.25;0.75;;;;;4.18;74.42;99475.28;4961579;28;45345;-71
2021/12/08 08:22:59;;;;;;;;;0.50;0.50;;;;;4.27;73.76;99485.09;4959006;28;46627;-72
2021/12/08 08:25:29;;;;;;;;;0.75;0.50;;;;;4.16;74.35;99473.44;4959813;28;45817;-72
2021/12/08 08:27:54;;;;;;;;;4.50;1.00;;;;;4.23;73.71;99478.91;4958755;28;45502;-72
2021/12/08 08:30:25;;;;;;;;;2.00;2.00;;;;;4.25;74.01;99485.03;4959375;28;45210;-72
2021/12/08 08:32:54;;;;;;;;;2.00;1.00;;;;;4.26;74.23;99499.03;4961369;28;45380;-72
2021/12/08 08:35:22;;;;;;;;;2.00;2.00;;;;;4.34;74.30;99515.84;4967414;28;47241;-73
2021/12/08 08:37:49;;;;;;;;;1.00;1.00;;;;;4.34;74.44;99513.22;4958676;28;45385;-72
2021/12/08 08:40:21;;;;;;;;;1.50;1.50;;;;;4.30;74.35;99506.13;4962425;28;45487;-72
2021/12/08 08:42:50;;;;;;;;;5.00;1.75;;;;;4.37;74.48;99512.38;4962808;28;45323;-72
2021/12/08 08:45:25;;;;;;;;;1.00;1.00;;;;;4.31;74.19;99509.59;4964167;28;46512;-72
2021/12/08 08:47:57;;;;;;;;;2.75;2.25;;;;;4.33;74.26;99514.03;4964443;28;45732;-72
2021/12/08 08:50:49;;;;;;;;;1.50;1.25;;;;;4.37;74.16;99513.31;4964031;28;45401;-72
2021/12/08 08:53:17;;;;;;;;;3.00;1.75;;;;;4.39;74.04;99516.81;4963838;28;45633;-72
2021/12/08 08:56:16;;;;;;;;;4.50;2.00;;;;;4.48;74.28;99524.97;4969604;28;46983;-72
2021/12/08 08:58:46;;;;;;;;;1.50;1.50;;;;;4.51;73.67;99524.16;4958519;28;45433;-72
2021/12/08 09:01:16;;;;;;;;;0.00;0.00;;;;;4.53;73.67;99522.44;4960691;28;45558;-71
2021/12/08 09:03:48;;;;;;;;;1.00;0.00;;;;;4.52;73.88;99519.81;4958225;28;46293;-72
2021/12/08 09:06:20;;;;;;;;;1.00;1.00;;;;;4.52;73.72;99517.19;4964270;28;45366;-72
2021/12/08 09:08:46;;;;;;;;;2.50;1.00;;;;;4.55;73.57;99523.38;4979137;28;45413;-72
2021/12/08 09:11:17;;;;;;;;;2.00;0.25;;;;;4.62;73.55;99534.91;4961079;28;45389;-72
2021/12/08 09:13:50;;;;;;;;;2.00;2.00;;;;;4.72;73.73;99552.63;4958949;28;45296;-72
2021/12/08 09:16:24;;;;;;;;;4.25;1.00;;;;;4.75;73.42;99549.22;4961472;28;45608;-72
2021/12/08 09:19:01;;;;;;;;;5.00;1.00;;;;;4.76;73.32;99537.91;4958386;28;45315;-72
2021/12/08 09:21:48;;;;;;;;;1.50;1.00;;;;;4.81;73.55;99547.63;4963833;28;45432;-71
2021/12/08 09:24:20;;;;;;;;;1.50;1.50;;;;;4.70;73.31;99515.06;4975137;28;45353;-72
2021/12/08 09:26:51;;;;;;;;;4.25;1.00;;;;;4.84;73.61;99526.78;4967082;28;45747;-72
2021/12/08 09:29:27;;;;;;;;;2.00;2.00;;;;;4.80;73.23;99526.69;4958296;28;45446;-72
2021/12/08 09:32:05;;;;;;;;;2.25;1.50;;;;;4.90;73.42;99541.75;4970604;28;45378;-71
2021/12/08 09:34:39;;;;;;;;;1.50;1.00;;;;;4.91;72.87;99540.94;4968462;28;45443;-71
2021/12/08 09:37:12;;;;;;;;;7.50;2.00;;;;;4.98;72.84;99553.34;4957747;28;45419;-71
2021/12/08 09:39:58;;;;;;;;;1.00;1.00;;;;;5.08;73.28;99557.97;4960625;28;45328;-72
2021/12/08 09:42:35;;;;;;;;;3.00;1.25;;;;;5.22;72.59;99563.56;4963332;28;45385;-71
2021/12/08 09:45:13;;;;;;;;;2.75;1.00;;;;;5.16;72.33;99537.22;4964271;28;45220;-71
2021/12/08 09:47:39;;;;;;;;;4.50;2.75;;;;;5.19;72.92;99539.91;4973260;28;47057;-71
2021/12/08 09:50:09;;;;;;;;;1.25;1.00;;;;;5.23;72.50;99535.63;4969058;28;45376;-71
2021/12/08 09:52:35;;;;;;;;;1.00;0.00;;;;;5.28;72.38;99539.25;4963724;28;45355;-71
2021/12/08 09:55:01;;;;;;;;;1.00;1.00;;;;;5.45;72.51;99553.66;4969399;28;46226;-71
2021/12/08 09:57:29;;;;;;;;;1.75;0.00;;;;;5.52;72.12;99544.25;4957765;28;46302;-72
2021/12/08 09:59:55;;;;;;;;;1.75;1.00;;;;;5.72;71.27;99542.97;4961809;28;45360;-71
2021/12/08 10:02:34;;;;;;;;;1.00;1.00;;;;;5.90;71.24;99539.00;4957540;28;45447;-72
2021/12/08 10:05:07;;;;;;;;;0.00;0.00;;;;;5.93;70.58;99523.31;4961691;28;45504;-72
2021/12/08 10:07:33;;;;;;;;;1.25;1.25;;;;;6.18;69.74;99544.03;4960735;28;46640;-72
2021/12/08 10:09:59;;;;;;;;;1.00;1.00;;;;;6.20;69.31;99520.44;4959971;28;45374;-71
2021/12/08 10:12:24;;;;;;;;;2.75;1.50;;;;;6.32;69.04;99520.69;4958289;28;45305;-72
2021/12/08 10:14:50;;;;;;;;;2.00;0.75;;;;;6.47;68.95;99513.16;4962201;28;45305;-72
2021/12/08 10:17:19;;;;;;;;;2.00;1.00;;;;;6.73;69.52;99531.16;4957540;28;45310;-71
2021/12/08 10:19:46;;;;;;;;;1.75;1.00;;;;;6.87;68.76;99537.53;4967896;28;45407;-72
2021/12/08 10:22:21;;;;;;;;;2.00;1.00;;;;;6.97;68.36;99540.34;4968116;28;45380;-71
2021/12/08 10:25:15;;;;;;;;;1.25;0.00;;;;;7.00;68.77;99532.50;4969350;28;45437;-71
2021/12/08 10:28:08;;;;;;;;;1.50;1.25;;;;;7.04;68.50;99535.22;4960333;28;45531;-72
2021/12/08 10:30:55;;;;;;;;;0.50;0.50;;;;;7.11;67.77;99538.84;4959980;28;45283;-71
2021/12/08 10:36:47;;;;;;;;;0.75;0.75;;;;;7.07;67.78;99535.28;4967246;28;45534;-72
2021/12/08 10:39:18;;;;;;;;;3.50;2.25;;;;;7.02;67.28;99534.31;4962582;28;46391;-72
2021/12/08 10:41:51;;;;;;;;;1.00;1.00;;;;;6.94;67.61;99533.28;4965083;28;45249;-72
2021/12/08 10:44:25;;;;;;;;;2.75;1.00;;;;;6.77;67.95;99513.69;4958289;28;45249;-72
2021/12/08 10:46:57;;;;;;;;;1.00;1.00;;;;;6.71;67.74;99515.34;4996402;28;45217;-72
2021/12/08 10:54:45;;;;;;;;;0.00;0.00;;;;;6.34;67.67;99512.88;4959976;28;45731;-71
2021/12/08 10:57:30;;;;;;;;;2.75;1.75;;;;;6.43;68.91;99536.66;4965926;28;45462;-71
2021/12/08 11:00:05;;;;;;;;;1.25;0.50;;;;;6.31;68.99;99518.06;4958562;28;47170;-72
2021/12/08 11:02:40;;;;;;;;;0.25;0.25;;;;;6.42;68.04;99535.78;4964176;28;45399;-71
2021/12/08 11:05:29;;;;;;;;;1.00;1.00;;;;;6.42;68.30;99530.53;4964845;28;45553;-71
2021/12/08 11:08:12;;;;;;;;;0.00;0.00;;;;;6.53;68.77;99529.88;4978075;28;45355;-71
2021/12/08 11:10:53;;;;;;;;;2.25;1.50;;;;;6.64;68.92;99536.22;4959512;28;45371;-72
2021/12/08 11:13:23;;;;;;;;;6.00;1.00;;;;;6.66;67.92;99531.88;4956811;28;45329;-72
2021/12/08 11:15:58;;;;;;;;;2.00;0.75;;;;;6.65;68.34;99517.88;4958260;28;45610;-72
2021/12/08 11:18:24;;;;;;;;;4.00;1.25;;;;;6.73;68.22;99528.53;4957536;28;45292;-72
2021/12/08 11:20:59;;;;;;;;;2.00;0.00;;;;;6.79;68.37;99536.50;4961496;28;47478;-73
2021/12/08 11:23:41;;;;;;;;;0.75;0.75;;;;;6.80;68.05;99526.88;4967771;28;45316;-71
2021/12/08 11:26:25;;;;;;;;;3.00;1.00;;;;;6.81;66.89;99536.56;4973375;28;45260;-72
2021/12/08 11:29:02;;;;;;;;;0.50;0.50;;;;;6.84;66.78;99540.13;4971448;28;45399;-72
2021/12/08 11:31:41;;;;;;;;;0.00;0.00;;;;;6.73;67.08;99518.03;4974230;28;48199;-71
2021/12/08 11:34:16;;;;;;;;;1.25;0.00;;;;;6.83;67.23;99516.44;4959035;28;45369;-71
2021/12/08 11:36:42;;;;;;;;;0.00;0.00;;;;;6.85;66.12;99522.59;4974439;27;45343;-71
2021/12/08 11:39:12;;;;;;;;;0.00;0.00;;;;;6.89;67.11;99527.97;4961122;28;45454;-72
2021/12/08 11:41:39;;;;;;;;;1.75;1.00;;;;;6.90;66.39;99532.34;4969662;28;47366;-71
2021/12/08 11:44:09;;;;;;;;;2.00;0.75;;;;;6.89;67.58;99520.09;4958887;28;45445;-72
2021/12/08 11:46:51;;;;;;;;;0.00;0.00;;;;;6.95;67.10;99522.81;4996817;28;45569;-71
2021/12/08 11:49:17;;;;;;;;;2.00;2.00;;;;;6.93;66.73;99511.38;4976350;28;45388;-71
2021/12/08 11:51:42;;;;;;;;;2.00;2.00;;;;;7.01;66.00;99523.78;4963791;28;46787;-72
2021/12/08 11:54:22;;;;;;;;;2.50;1.00;;;;;7.03;66.34;99525.59;4960148;28;45457;-71
2021/12/08 11:56:47;;;;;;;;;1.00;0.25;;;;;7.06;66.35;99524.75;4968413;28;45235;-71
2021/12/08 11:59:13;;;;;;;;;2.00;1.00;;;;;7.08;66.44;99518.66;4960741;28;45292;-71
2021/12/08 12:01:39;;;;;;;;;0.50;0.50;;;;;7.11;66.46;99521.34;4960190;28;45630;-71
2021/12/08 12:04:07;;;;;;;;;3.00;0.75;;;;;7.18;66.04;99520.59;4959750;28;45312;-72
2021/12/08 12:06:34;;;;;;;;;0.50;0.00;;;;;7.21;65.91;99518.88;4967440;28;45343;-71
2021/12/08 12:09:01;;;;;;;;;1.25;1.00;;;;;7.35;66.71;99536.63;4983188;28;45296;-72
2021/12/08 12:11:28;;;;;;;;;2.50;1.50;;;;;7.35;66.69;99526.13;4961314;28;45456;-72
2021/12/08 12:13:55;;;;;;;;;0.75;0.75;;;;;7.44;65.30;99535.91;4959436;28;44639;-71
2021/12/08 12:16:21;;;;;;;;;1.25;1.00;;;;;7.51;65.39;99543.06;4967400;28;45285;-72
2021/12/08 12:18:46;;;;;;;;;1.75;0.50;;;;;7.54;65.22;99550.97;4959410;28;45451;-72
2021/12/08 12:21:40;;;;;;;;;0.75;0.00;;;;;7.55;64.95;99547.47;4961299;28;45462;-72
2021/12/08 12:24:28;;;;;;;;;2.00;1.00;;;;;7.58;65.58;99552.78;4959458;28;45429;-71
2021/12/08 12:27:29;;;;;;;;;0.50;0.50;;;;;7.62;65.40;99554.63;4971254;28;45569;-72
2021/12/08 12:29:58;;;;;;;;;1.75;1.75;;;;;7.69;64.69;99563.47;4960062;28;46220;-71
2021/12/08 12:32:31;;;;;;;;;2.50;0.25;;;;;7.61;65.75;99546.69;4966666;28;45465;-71
2021/12/08 12:35:32;;;;;;;;;1.00;1.00;;;;;7.75;65.95;99568.84;4960890;28;45339;-71
2021/12/08 12:38:11;;;;;;;;;1.75;1.00;;;;;7.67;65.23;99552.03;4987594;27;45295;-71
2021/12/08 12:40:41;;;;;;;;;0.50;0.25;;;;;7.71;64.57;99556.50;4968133;28;45334;-72
2021/12/08 12:43:07;;;;;;;;;0.00;0.00;;;;;7.69;63.33;99565.22;4958723;28;45461;-72
2021/12/08 12:45:40;;;;;;;;;1.25;0.50;;;;;7.55;63.95;99558.00;4974445;28;45763;-71